Wetterdaten: Woche 10.09.18 - 16.09.18 (KW37)
Datum Zeit Temp. Aussen Temp. o. S. +5cm Feuchte Auss Luftdruck Regen Sonnenschein Regendauer Solar Windben Empfang
10.09.2018 00:00 16,4 C 15,7 C 15,0 C 77 % 1017,6 hPa 0,0 l/m 0,00 h 0,00 h 0 W/m 3,4 km/h (1 Bft) 93,97 %
10.09.2018 01:00 16,2 C 15,6 C 15,0 C 79 % 1017,6 hPa 0,0 l/m 0,00 h 0,00 h 0 W/m 5,8 km/h (2 Bft) 97,77 %
10.09.2018 02:00 15,8 C 15,0 C 14,7 C 81 % 1017,5 hPa 0,0 l/m 0,00 h 0,00 h 0 W/m 4,1 km/h (1 Bft) 97,72 %
10.09.2018 03:00 15,2 C 13,7 C 13,7 C 83 % 1018,1 hPa 0,0 l/m 0,00 h 0,00 h 0 W/m 0,3 km/h (0 Bft) 96,07 %
10.09.2018 04:00 14,3 C 13,4 C 13,0 C 86 % 1017,9 hPa 0,0 l/m 0,00 h 0,00 h 0 W/m 0,1 km/h (0 Bft) 99,26 %
10.09.2018 05:00 14,2 C 13,9 C 13,7 C 88 % 1018,3 hPa 0,0 l/m 0,00 h 0,00 h 0 W/m 0,1 km/h (0 Bft) 98,32 %
10.09.2018 06:00 14,5 C 14,2 C 13,9 C 88 % 1018,5 hPa 0,0 l/m 0,00 h 0,00 h 0 W/m 0,2 km/h (0 Bft) 94,37 %
10.09.2018 07:00 14,8 C 14,5 C 14,3 C 89 % 1018,9 hPa 0,0 l/m 0,00 h 0,00 h 18 W/m 0,2 km/h (0 Bft) 99,03 %
10.09.2018 08:00 15,4 C 15,4 C 14,9 C 89 % 1019,2 hPa 0,0 l/m 0,00 h 0,00 h 57 W/m 1,4 km/h (1 Bft) 97,75 %
10.09.2018 09:00 16,5 C 17,1 C 15,9 C 90 % 1019,4 hPa 0,0 l/m 0,43 h 0,00 h 181 W/m 2,8 km/h (1 Bft) 96,73 %
10.09.2018 10:00 17,9 C 19,2 C 17,0 C 87 % 1019,6 hPa 0,0 l/m 0,43 h 0,00 h 265 W/m 3,2 km/h (1 Bft) 98,63 %
10.09.2018 11:00 19,9 C 23,5 C 18,4 C 82 % 1019,8 hPa 0,0 l/m 0,90 h 0,00 h 403 W/m 3,9 km/h (1 Bft) 97,37 %
10.09.2018 12:00 21,6 C 23,4 C 19,6 C 72 % 1019,9 hPa 0,0 l/m 0,70 h 0,00 h 359 W/m 5,5 km/h (1 Bft) 96,23 %
10.09.2018 13:00 22,0 C 22,7 C 20,2 C 69 % 1019,9 hPa 0,0 l/m 0,53 h 0,00 h 359 W/m 4,7 km/h (1 Bft) 98,31 %
10.09.2018 14:00 22,1 C 22,0 C 20,2 C 67 % 1020,1 hPa 0,0 l/m 0,03 h 0,00 h 283 W/m 6,1 km/h (2 Bft) 98,65 %
10.09.2018 15:00 22,0 C 21,9 C 20,5 C 67 % 1020,0 hPa 0,0 l/m 0,53 h 0,00 h 304 W/m 6,4 km/h (2 Bft) 96,86 %
10.09.2018 16:00 21,9 C 21,8 C 20,4 C 66 % 1019,9 hPa 0,0 l/m 0,40 h 0,00 h 225 W/m 5,5 km/h (1 Bft) 96,16 %
10.09.2018 17:00 21,8 C 21,0 C 20,0 C 67 % 1020,1 hPa 0,0 l/m 0,00 h 0,00 h 115 W/m 3,7 km/h (1 Bft) 99,29 %
10.09.2018 18:00 21,4 C 20,5 C 19,6 C 69 % 1019,9 hPa 0,0 l/m 0,00 h 0,00 h 67 W/m 0,9 km/h (0 Bft) 97,96 %
10.09.2018 19:00 20,8 C 19,3 C 18,3 C 71 % 1019,8 hPa 0,0 l/m 0,00 h 0,00 h 27 W/m 0,1 km/h (0 Bft) 95,09 %
10.09.2018 20:00 19,8 C 18,2 C 17,2 C 74 % 1020,2 hPa 0,0 l/m 0,00 h 0,00 h 0 W/m 0,0 km/h (0 Bft) 99,36 %
10.09.2018 21:00 18,7 C 17,5 C 16,7 C 78 % 1019,9 hPa 0,0 l/m 0,00 h 0,00 h 0 W/m 2,1 km/h (1 Bft) 97,37 %
10.09.2018 22:00 17,9 C 16,7 C 16,7 C 79 % 1020,1 hPa 0,0 l/m 0,00 h 0,00 h 0 W/m 1,1 km/h (1 Bft) 96,44 %
10.09.2018 23:00 17,1 C 15,5 C 15,3 C 81 % 1020,4 hPa 0,0 l/m 0,00 h 0,00 h 0 W/m 0,2 km/h (0 Bft) 97,99 %
11.09.2018 00:00 16,0 C 14,6 C 14,5 C 85 % 1020,4 hPa 0,0 l/m 0,00 h 0,00 h 0 W/m 0,8 km/h (0 Bft) 92,88 %
11.09.2018 01:00 15,5 C 14,5 C 14,5 C 88 % 1020,3 hPa 0,0 l/m 0,00 h 0,00 h 0 W/m 1,0 km/h (0 Bft) 98,75 %
11.09.2018 02:00 15,1 C 14,4 C 14,4 C 87 % 1020,2 hPa 0,0 l/m 0,00 h 0,00 h 0 W/m 3,3 km/h (1 Bft) 97,44 %
11.09.2018 03:00 14,8 C 14,0 C 14,0 C 86 % 1019,9 hPa 0,0 l/m 0,00 h 0,00 h 0 W/m 2,5 km/h (1 Bft) 96,06 %
11.09.2018 04:00 14,6 C 13,9 C 13,9 C 87 % 1019,9 hPa 0,0 l/m 0,00 h 0,00 h 0 W/m 2,6 km/h (1 Bft) 98,79 %
11.09.2018 05:00 14,8 C 14,5 C 14,4 C 87 % 1020,1 hPa 0,0 l/m 0,00 h 0,00 h 0 W/m 2,5 km/h (1 Bft) 97,56 %
11.09.2018 06:00 15,5 C 15,2 C 15,0 C 87 % 1020,1 hPa 0,0 l/m 0,00 h 0,00 h 0 W/m 4,4 km/h (1 Bft) 95,93 %
11.09.2018 07:00 15,8 C 15,0 C 15,0 C 85 % 1020,0 hPa 0,0 l/m 0,00 h 0,00 h 20 W/m 5,7 km/h (1 Bft) 99,00 %
11.09.2018 08:00 15,8 C 15,6 C 15,1 C 86 % 1020,2 hPa 0,0 l/m 0,00 h 0,00 h 57 W/m 6,0 km/h (2 Bft) 97,58 %
11.09.2018 09:00 16,7 C 17,1 C 16,0 C 85 % 1020,4 hPa 0,0 l/m 0,43 h 0,00 h 151 W/m 7,3 km/h (2 Bft) 95,56 %
11.09.2018 10:00 19,0 C 22,7 C 17,6 C 80 % 1020,4 hPa 0,0 l/m 0,87 h 0,00 h 340 W/m 9,9 km/h (2 Bft) 98,16 %
11.09.2018 11:00 21,7 C 25,6 C 19,4 C 72 % 1020,2 hPa 0,0 l/m 0,73 h 0,00 h 430 W/m 10,6 km/h (2 Bft) 97,01 %
11.09.2018 12:00 23,1 C 26,9 C 20,8 C 67 % 1020,2 hPa 0,0 l/m 0,03 h 0,00 h 136 W/m 12,9 km/h (3 Bft) 96,99 %
11.09.2018 13:00 23,9 C 24,1 C 21,8 C 64 % 1019,9 hPa 0,0 l/m 0,73 h 0,00 h 511 W/m 11,8 km/h (2 Bft) 98,28 %
11.09.2018 14:00 24,7 C 24,8 C 23,0 C 62 % 1019,5 hPa 0,0 l/m 1,00 h 0,00 h 618 W/m 10,1 km/h (2 Bft) 97,88 %
11.09.2018 15:00 25,9 C 25,8 C 24,0 C 57 % 1019,1 hPa 0,0 l/m 1,00 h 0,00 h 603 W/m 10,5 km/h (2 Bft) 97,58 %
11.09.2018 16:00 26,8 C 28,0 C 24,5 C 52 % 1018,6 hPa 0,0 l/m 1,00 h 0,00 h 504 W/m 10,5 km/h (2 Bft) 95,87 %
11.09.2018 17:00 27,1 C 27,1 C 24,4 C 50 % 1018,3 hPa 0,0 l/m 1,00 h 0,00 h 364 W/m 10,1 km/h (2 Bft) 98,93 %
11.09.2018 18:00 26,7 C 25,8 C 24,4 C 50 % 1017,7 hPa 0,0 l/m 0,87 h 0,00 h 204 W/m 7,9 km/h (2 Bft) 98,01 %
11.09.2018 19:00 25,7 C 24,1 C 22,9 C 53 % 1017,8 hPa 0,0 l/m 0,00 h 0,00 h 20 W/m 4,6 km/h (1 Bft) 95,88 %
11.09.2018 20:00 23,8 C 21,6 C 20,1 C 58 % 1018,4 hPa 0,0 l/m 0,00 h 0,00 h 4 W/m 0,4 km/h (0 Bft) 98,61 %
11.09.2018 21:00 21,9 C 20,0 C 18,3 C 63 % 1018,6 hPa 0,0 l/m 0,00 h 0,00 h 0 W/m 0,2 km/h (0 Bft) 97,64 %
11.09.2018 22:00 20,3 C 18,9 C 17,3 C 69 % 1018,6 hPa 0,0 l/m 0,00 h 0,00 h 0 W/m 0,8 km/h (0 Bft) 97,45 %
11.09.2018 23:00 19,3 C 18,1 C 16,9 C 72 % 1018,8 hPa 0,0 l/m 0,00 h 0,00 h 0 W/m 0,1 km/h (0 Bft) 97,24 %
12.09.2018 00:00 18,8 C 18,1 C 17,1 C 74 % 1019,0 hPa 0,0 l/m 0,00 h 0,00 h 0 W/m 0,7 km/h (0 Bft) 97,28 %
12.09.2018 01:00 18,7 C 18,0 C 17,1 C 76 % 1018,7 hPa 0,0 l/m 0,00 h 0,00 h 0 W/m 1,2 km/h (1 Bft) 98,65 %
12.09.2018 02:00 18,8 C 18,1 C 17,6 C 77 % 1018,4 hPa 0,0 l/m 0,00 h 0,00 h 0 W/m 2,3 km/h (1 Bft) 97,17 %
12.09.2018 03:00 18,4 C 16,9 C 16,8 C 79 % 1017,9 hPa 0,0 l/m 0,00 h 0,00 h 0 W/m 2,0 km/h (1 Bft) 95,80 %
12.09.2018 04:00 17,3 C 15,7 C 15,4 C 82 % 1017,6 hPa 0,0 l/m 0,00 h 0,00 h 0 W/m 0,3 km/h (0 Bft) 99,33 %
12.09.2018 05:00 16,4 C 15,6 C 15,1 C 85 % 1017,4 hPa 0,0 l/m 0,00 h 0,00 h 0 W/m 0,9 km/h (0 Bft) 98,01 %
12.09.2018 06:00 16,0 C 14,9 C 14,9 C 86 % 1017,3 hPa 0,0 l/m 0,00 h 0,00 h 0 W/m 0,9 km/h (0 Bft) 97,12 %
12.09.2018 07:00 15,4 C 14,0 C 14,0 C 87 % 1017,5 hPa 0,0 l/m 0,00 h 0,00 h 14 W/m 0,0 km/h (0 Bft) 97,36 %
12.09.2018 08:00 15,2 C 16,1 C 15,2 C 90 % 1017,7 hPa 0,0 l/m 0,00 h 0,00 h 71 W/m 0,8 km/h (0 Bft) 98,46 %
12.09.2018 09:00 17,4 C 18,5 C 17,3 C 90 % 1018,0 hPa 0,0 l/m 0,17 h 0,00 h 153 W/m 3,7 km/h (1 Bft) 97,97 %
12.09.2018 10:00 19,5 C 23,1 C 18,0 C 86 % 1018,0 hPa 0,0 l/m 0,57 h 0,00 h 268 W/m 3,8 km/h (1 Bft) 96,66 %
12.09.2018 11:00 22,1 C 27,2 C 19,4 C 79 % 1018,1 hPa 0,0 l/m 0,90 h 0,00 h 442 W/m 6,3 km/h (2 Bft) 96,37 %
12.09.2018 12:00 23,4 C 26,6 C 20,8 C 74 % 1018,3 hPa 0,0 l/m 0,27 h 0,00 h 285 W/m 9,5 km/h (2 Bft) 99,16 %
12.09.2018 13:00 24,3 C 25,3 C 22,0 C 71 % 1018,2 hPa 0,0 l/m 1,00 h 0,00 h 554 W/m 9,4 km/h (2 Bft) 97,59 %
12.09.2018 14:00 23,4 C 22,9 C 21,2 C 73 % 1018,5 hPa 0,0 l/m 0,50 h 0,00 h 322 W/m 9,7 km/h (2 Bft) 96,07 %
12.09.2018 15:00 20,8 C 19,8 C 18,9 C 78 % 1018,8 hPa 0,0 l/m 0,17 h 0,00 h 243 W/m 15,0 km/h (3 Bft) 98,94 %
12.09.2018 16:00 18,5 C 17,2 C 16,9 C 81 % 1019,2 hPa 0,0 l/m 0,00 h 0,00 h 113 W/m 13,5 km/h (3 Bft) 97,08 %
12.09.2018 17:00 16,2 C 15,3 C 15,1 C 86 % 1019,6 hPa 0,0 l/m 0,00 h 0,07 h 83 W/m 12,1 km/h (2 Bft) 96,52 %
12.09.2018 18:00 15,7 C 14,5 C 14,8 C 90 % 1019,6 hPa 0,0 l/m 0,00 h 0,10 h 44 W/m 7,8 km/h (2 Bft) 98,49 %
12.09.2018 19:00 15,4 C 14,9 C 15,0 C 91 % 1019,6 hPa 0,0 l/m 0,00 h 0,00 h 13 W/m 6,9 km/h (2 Bft) 98,64 %
12.09.2018 20:00 15,3 C 15,0 C 15,0 C 91 % 1019,6 hPa 0,0 l/m 0,00 h 0,00 h 0 W/m 4,4 km/h (1 Bft) 94,84 %
12.09.2018 21:00 15,4 C 14,6 C 14,7 C 90 % 1019,9 hPa 0,0 l/m 0,00 h 0,00 h 0 W/m 4,0 km/h (1 Bft) 99,24 %
12.09.2018 22:00 15,3 C 14,4 C 14,5 C 90 % 1020,1 hPa 0,0 l/m 0,00 h 0,00 h 0 W/m 2,4 km/h (1 Bft) 97,51 %
12.09.2018 23:00 15,3 C 14,7 C 14,8 C 90 % 1020,1 hPa 0,0 l/m 0,00 h 0,00 h 0 W/m 3,0 km/h (1 Bft) 96,53 %
13.09.2018 00:00 15,3 C 14,4 C 14,4 C 90 % 1020,0 hPa 0,0 l/m 0,00 h 0,00 h 0 W/m 2,7 km/h (1 Bft) 97,76 %
13.09.2018 01:00 15,1 C 14,1 C 14,1 C 90 % 1019,7 hPa 0,0 l/m 0,00 h 0,53 h 0 W/m 3,4 km/h (1 Bft) 96,95 %
13.09.2018 02:00 14,8 C 12,9 C 12,9 C 91 % 1019,6 hPa 0,6 l/m 0,00 h 1,00 h 0 W/m 2,8 km/h (1 Bft) 98,07 %
13.09.2018 03:00 14,3 C 12,8 C 12,8 C 94 % 1019,1 hPa 0,6 l/m 0,00 h 0,87 h 0 W/m 2,4 km/h (1 Bft) 98,61 %
13.09.2018 04:00 13,9 C 12,8 C 12,8 C 95 % 1018,9 hPa 0,4 l/m 0,00 h 0,97 h 0 W/m 1,1 km/h (1 Bft) 94,89 %
13.09.2018 05:00 13,7 C 12,8 C 12,6 C 96 % 1018,9 hPa 0,0 l/m 0,00 h 0,00 h 0 W/m 1,0 km/h (0 Bft) 99,01 %
13.09.2018 06:00 13,5 C 12,2 C 12,2 C 96 % 1018,8 hPa 0,0 l/m 0,00 h 0,00 h 0 W/m 3,5 km/h (1 Bft) 98,75 %
13.09.2018 07:00 13,2 C 12,2 C 12,2 C 97 % 1018,9 hPa 0,0 l/m 0,00 h 0,00 h 8 W/m 4,3 km/h (1 Bft) 94,52 %
13.09.2018 08:00 13,2 C 12,4 C 12,2 C 97 % 1018,9 hPa 0,0 l/m 0,00 h 0,00 h 37 W/m 2,7 km/h (1 Bft) 98,58 %
13.09.2018 09:00 13,4 C 12,9 C 12,8 C 98 % 1019,2 hPa 0,0 l/m 0,00 h 0,00 h 75 W/m 3,0 km/h (1 Bft) 98,30 %
13.09.2018 10:00 13,9 C 13,6 C 13,5 C 98 % 1019,4 hPa 0,0 l/m 0,00 h 0,00 h 131 W/m 5,0 km/h (1 Bft) 97,01 %
13.09.2018 11:00 14,7 C 14,7 C 14,3 C 97 % 1019,6 hPa 0,0 l/m 0,00 h 0,00 h 186 W/m 5,4 km/h (1 Bft) 97,82 %
13.09.2018 12:00 15,6 C 16,4 C 14,7 C 91 % 1019,4 hPa 0,0 l/m 0,00 h 0,00 h 215 W/m 7,6 km/h (2 Bft) 96,93 %
13.09.2018 13:00 16,9 C 18,5 C 16,0 C 84 % 1019,2 hPa 0,0 l/m 0,57 h 0,00 h 363 W/m 6,5 km/h (2 Bft) 98,15 %
13.09.2018 14:00 18,2 C 19,2 C 16,8 C 77 % 1019,1 hPa 0,0 l/m 0,63 h 0,00 h 419 W/m 7,3 km/h (2 Bft) 97,59 %
13.09.2018 15:00 18,8 C 19,1 C 17,0 C 73 % 1018,7 hPa 0,0 l/m 0,37 h 0,00 h 279 W/m 6,5 km/h (2 Bft) 97,12 %
13.09.2018 16:00 19,2 C 20,0 C 17,4 C 70 % 1018,4 hPa 0,0 l/m 0,63 h 0,00 h 295 W/m 6,9 km/h (2 Bft) 98,28 %
13.09.2018 17:00 19,2 C 19,0 C 17,2 C 67 % 1018,2 hPa 0,0 l/m 0,53 h 0,00 h 204 W/m 6,5 km/h (2 Bft) 96,36 %
13.09.2018 18:00 18,8 C 18,0 C 16,8 C 67 % 1018,1 hPa 0,0 l/m 0,33 h 0,00 h 100 W/m 3,8 km/h (1 Bft) 98,29 %
13.09.2018 19:00 17,8 C 16,3 C 15,2 C 68 % 1018,3 hPa 0,0 l/m 0,03 h 0,00 h 23 W/m 1,7 km/h (1 Bft) 97,93 %
13.09.2018 20:00 16,1 C 14,3 C 13,6 C 71 % 1018,5 hPa 0,0 l/m 0,00 h 0,00 h 0 W/m 0,8 km/h (0 Bft) 95,74 %
13.09.2018 21:00 14,7 C 12,9 C 12,4 C 77 % 1019,0 hPa 0,0 l/m 0,00 h 0,00 h 0 W/m 0,0 km/h (0 Bft) 97,65 %
13.09.2018 22:00 13,2 C 11,5 C 11,2 C 82 % 1019,2 hPa 0,0 l/m 0,00 h 0,00 h 0 W/m 0,0 km/h (0 Bft) 99,58 %
13.09.2018 23:00 11,9 C 10,7 C 10,6 C 83 % 1019,3 hPa 0,0 l/m 0,00 h 0,00 h 0 W/m 0,0 km/h (0 Bft) 95,95 %
14.09.2018 00:00 11,4 C 11,4 C 11,3 C 86 % 1019,5 hPa 0,0 l/m 0,00 h 0,00 h 0 W/m 1,8 km/h (1 Bft) 98,17 %
14.09.2018 01:00 11,5 C 10,3 C 10,1 C 85 % 1019,6 hPa 0,0 l/m 0,00 h 0,00 h 0 W/m 0,2 km/h (0 Bft) 97,10 %
14.09.2018 02:00 10,5 C 9,0 C 9,1 C 86 % 1019,4 hPa 0,0 l/m 0,00 h 0,00 h 0 W/m 0,0 km/h (0 Bft) 97,33 %
14.09.2018 03:00 9,5 C 8,1 C 8,4 C 88 % 1019,3 hPa 0,0 l/m 0,00 h 0,00 h 0 W/m 0,1 km/h (0 Bft) 98,59 %
14.09.2018 04:00 8,8 C 7,6 C 7,9 C 90 % 1019,0 hPa 0,0 l/m 0,00 h 0,00 h 0 W/m 0,0 km/h (0 Bft) 99,15 %
14.09.2018 05:00 8,2 C 7,2 C 7,5 C 91 % 1018,8 hPa 0,0 l/m 0,00 h 0,00 h 0 W/m 0,0 km/h (0 Bft) 94,56 %
14.09.2018 06:00 7,6 C 6,7 C 7,0 C 92 % 1018,8 hPa 0,0 l/m 0,00 h 0,00 h 0 W/m 0,0 km/h (0 Bft) 97,91 %
14.09.2018 07:00 7,3 C 6,9 C 7,0 C 93 % 1019,0 hPa 0,0 l/m 0,00 h 0,00 h 15 W/m 0,1 km/h (0 Bft) 99,01 %
14.09.2018 08:00 7,8 C 8,5 C 7,9 C 95 % 1019,1 hPa 0,0 l/m 0,00 h 0,00 h 42 W/m 0,0 km/h (0 Bft) 98,69 %
14.09.2018 09:00 9,6 C 11,9 C 10,6 C 97 % 1019,3 hPa 0,0 l/m 0,40 h 0,00 h 150 W/m 1,1 km/h (1 Bft) 97,80 %
14.09.2018 10:00 12,6 C 20,1 C 12,9 C 97 % 1019,5 hPa 0,0 l/m 0,77 h 0,00 h 311 W/m 2,4 km/h (1 Bft) 95,52 %
14.09.2018 11:00 17,6 C 24,8 C 15,0 C 75 % 1019,5 hPa 0,0 l/m 0,73 h 0,00 h 389 W/m 4,8 km/h (1 Bft) 97,05 %
14.09.2018 12:00 19,7 C 24,5 C 16,7 C 63 % 1019,2 hPa 0,0 l/m 0,03 h 0,00 h 180 W/m 5,7 km/h (1 Bft) 97,52 %
14.09.2018 13:00 20,4 C 20,5 C 17,9 C 58 % 1018,7 hPa 0,0 l/m 0,57 h 0,00 h 439 W/m 7,2 km/h (2 Bft) 98,85 %
14.09.2018 14:00 20,4 C 20,5 C 18,5 C 57 % 1018,2 hPa 0,0 l/m 0,83 h 0,00 h 576 W/m 8,9 km/h (2 Bft) 99,00 %
14.09.2018 15:00 20,6 C 20,6 C 18,8 C 52 % 1017,9 hPa 0,0 l/m 1,00 h 0,00 h 596 W/m 8,7 km/h (2 Bft) 95,23 %
14.09.2018 16:00 21,0 C 22,0 C 18,7 C 51 % 1017,7 hPa 0,0 l/m 1,00 h 0,00 h 492 W/m 7,9 km/h (2 Bft) 99,07 %
14.09.2018 17:00 20,7 C 20,5 C 18,3 C 53 % 1017,7 hPa 0,0 l/m 0,87 h 0,00 h 312 W/m 6,7 km/h (2 Bft) 98,45 %
14.09.2018 18:00 19,7 C 18,7 C 17,7 C 56 % 1017,7 hPa 0,0 l/m 0,83 h 0,00 h 139 W/m 5,3 km/h (1 Bft) 94,81 %
14.09.2018 19:00 18,4 C 16,8 C 16,4 C 60 % 1017,8 hPa 0,0 l/m 0,37 h 0,00 h 30 W/m 3,3 km/h (1 Bft) 99,49 %
14.09.2018 20:00 16,5 C 14,4 C 14,0 C 67 % 1018,1 hPa 0,0 l/m 0,00 h 0,00 h 0 W/m 0,0 km/h (0 Bft) 97,31 %
14.09.2018 21:00 15,4 C 14,4 C 14,1 C 73 % 1018,4 hPa 0,0 l/m 0,00 h 0,00 h 0 W/m 0,3 km/h (0 Bft) 97,24 %
14.09.2018 22:00 14,8 C 13,4 C 13,2 C 75 % 1018,6 hPa 0,0 l/m 0,00 h 0,00 h 0 W/m 0,5 km/h (0 Bft) 97,43 %
14.09.2018 23:00 14,7 C 14,4 C 14,2 C 76 % 1019,0 hPa 0,0 l/m 0,00 h 0,00 h 0 W/m 2,9 km/h (1 Bft) 97,18 %
15.09.2018 00:00 14,9 C 14,1 C 13,9 C 76 % 1019,1 hPa 0,0 l/m 0,00 h 0,00 h 0 W/m 0,3 km/h (0 Bft) 99,14 %
15.09.2018 01:00 14,3 C 12,7 C 12,6 C 77 % 1019,3 hPa 0,0 l/m 0,00 h 0,00 h 0 W/m 0,2 km/h (0 Bft) 97,00 %
15.09.2018 02:00 13,1 C 11,9 C 12,2 C 81 % 1019,5 hPa 0,0 l/m 0,00 h 0,00 h 0 W/m 0,5 km/h (0 Bft) 96,18 %
15.09.2018 03:00 12,4 C 11,8 C 12,0 C 84 % 1019,5 hPa 0,0 l/m 0,00 h 0,00 h 0 W/m 2,1 km/h (1 Bft) 97,43 %
15.09.2018 04:00 12,8 C 12,6 C 12,6 C 85 % 1019,4 hPa 0,0 l/m 0,00 h 0,00 h 0 W/m 3,3 km/h (1 Bft) 98,90 %
15.09.2018 05:00 13,2 C 12,8 C 12,8 C 84 % 1019,7 hPa 0,0 l/m 0,00 h 0,00 h 0 W/m 4,2 km/h (1 Bft) 97,69 %
15.09.2018 06:00 13,1 C 12,4 C 12,4 C 85 % 1020,0 hPa 0,0 l/m 0,00 h 0,00 h 0 W/m 3,4 km/h (1 Bft) 95,41 %
15.09.2018 07:00 12,5 C 11,7 C 11,8 C 87 % 1020,2 hPa 0,0 l/m 0,00 h 0,00 h 14 W/m 3,8 km/h (1 Bft) 98,97 %
15.09.2018 08:00 12,4 C 12,2 C 12,0 C 90 % 1020,8 hPa 0,0 l/m 0,00 h 0,00 h 34 W/m 4,6 km/h (1 Bft) 97,75 %
15.09.2018 09:00 13,6 C 14,2 C 13,3 C 89 % 1021,4 hPa 0,0 l/m 0,20 h 0,00 h 133 W/m 5,9 km/h (2 Bft) 96,28 %
15.09.2018 10:00 15,7 C 17,9 C 14,8 C 85 % 1021,8 hPa 0,0 l/m 0,57 h 0,00 h 249 W/m 5,2 km/h (1 Bft) 97,71 %
15.09.2018 11:00 17,6 C 21,4 C 16,0 C 79 % 1022,2 hPa 0,0 l/m 0,43 h 0,00 h 322 W/m 6,5 km/h (2 Bft) 98,52 %
15.09.2018 12:00 18,9 C 21,1 C 17,0 C 70 % 1022,2 hPa 0,0 l/m 0,07 h 0,00 h 231 W/m 7,1 km/h (2 Bft) 98,64 %
15.09.2018 13:00 19,5 C 19,8 C 17,8 C 66 % 1022,1 hPa 0,0 l/m 0,50 h 0,00 h 431 W/m 7,8 km/h (2 Bft) 95,04 %
15.09.2018 14:00 20,4 C 20,6 C 18,6 C 62 % 1022,1 hPa 0,0 l/m 0,37 h 0,00 h 346 W/m 6,9 km/h (2 Bft) 99,35 %
15.09.2018 15:00 20,0 C 19,5 C 18,4 C 60 % 1022,0 hPa 0,0 l/m 0,10 h 0,00 h 206 W/m 7,7 km/h (2 Bft) 98,68 %
15.09.2018 16:00 19,5 C 19,1 C 17,9 C 62 % 1022,2 hPa 0,0 l/m 0,00 h 0,00 h 139 W/m 8,3 km/h (2 Bft) 95,72 %
15.09.2018 17:00 19,2 C 18,9 C 17,8 C 64 % 1022,1 hPa 0,0 l/m 0,03 h 0,00 h 128 W/m 6,8 km/h (2 Bft) 98,92 %
15.09.2018 18:00 19,0 C 18,3 C 17,3 C 66 % 1022,1 hPa 0,0 l/m 0,57 h 0,00 h 123 W/m 5,4 km/h (1 Bft) 98,33 %
15.09.2018 19:00 18,1 C 16,2 C 15,4 C 69 % 1022,2 hPa 0,0 l/m 0,17 h 0,00 h 25 W/m 0,6 km/h (0 Bft) 95,81 %
15.09.2018 20:00 16,1 C 13,9 C 13,3 C 75 % 1022,5 hPa 0,0 l/m 0,00 h 0,00 h 0 W/m 0,0 km/h (0 Bft) 99,34 %
15.09.2018 21:00 14,4 C 12,8 C 12,4 C 80 % 1022,9 hPa 0,0 l/m 0,00 h 0,00 h 0 W/m 0,0 km/h (0 Bft) 96,98 %
15.09.2018 22:00 13,4 C 12,2 C 11,9 C 83 % 1023,1 hPa 0,0 l/m 0,00 h 0,00 h 0 W/m 0,0 km/h (0 Bft) 98,37 %
15.09.2018 23:00 12,6 C 11,3 C 11,0 C 85 % 1023,1 hPa 0,0 l/m 0,00 h 0,00 h 0 W/m 0,0 km/h (0 Bft) 97,41 %
16.09.2018 00:00 11,8 C 10,4 C 10,5 C 86 % 1023,1 hPa 0,0 l/m 0,00 h 0,00 h 0 W/m 0,0 km/h (0 Bft) 96,18 %
16.09.2018 01:00 11,0 C 10,0 C 10,0 C 88 % 1023,0 hPa 0,0 l/m 0,00 h 0,00 h 0 W/m 0,0 km/h (0 Bft) 99,05 %
16.09.2018 02:00 10,5 C 9,2 C 9,5 C 90 % 1022,5 hPa 0,0 l/m 0,00 h 0,00 h 0 W/m 0,0 km/h (0 Bft) 98,29 %
16.09.2018 03:00 10,4 C 10,4 C 10,4 C 93 % 1022,0 hPa 0,0 l/m 0,00 h 0,00 h 0 W/m 2,8 km/h (1 Bft) 97,38 %
16.09.2018 04:00 10,9 C 10,6 C 10,7 C 94 % 1021,5 hPa 0,0 l/m 0,00 h 0,00 h 0 W/m 5,2 km/h (1 Bft) 96,26 %
16.09.2018 05:00 10,7 C 10,0 C 10,5 C 93 % 1021,1 hPa 0,0 l/m 0,00 h 0,00 h 0 W/m 5,5 km/h (1 Bft) 99,34 %
16.09.2018 06:00 10,3 C 9,6 C 10,0 C 93 % 1021,1 hPa 0,0 l/m 0,00 h 0,00 h 0 W/m 5,1 km/h (1 Bft) 97,27 %
16.09.2018 07:00 10,1 C 9,6 C 10,0 C 93 % 1021,1 hPa 0,0 l/m 0,00 h 0,00 h 14 W/m 5,4 km/h (1 Bft) 97,06 %
16.09.2018 08:00 10,3 C 10,6 C 10,5 C 94 % 1021,3 hPa 0,0 l/m 0,00 h 0,00 h 34 W/m 7,7 km/h (2 Bft) 98,05 %
16.09.2018 09:00 11,8 C 13,3 C 11,9 C 92 % 1021,3 hPa 0,0 l/m 0,40 h 0,00 h 141 W/m 9,1 km/h (2 Bft) 96,80 %
16.09.2018 10:00 15,3 C 21,9 C 13,9 C 83 % 1021,3 hPa 0,0 l/m 0,80 h 0,00 h 311 W/m 8,2 km/h (2 Bft) 97,41 %
16.09.2018 11:00 20,2 C 26,5 C 16,1 C 67 % 1021,0 hPa 0,0 l/m 0,73 h 0,00 h 374 W/m 8,1 km/h (2 Bft) 97,41 %
16.09.2018 12:00 22,4 C 26,5 C 18,4 C 58 % 1020,5 hPa 0,0 l/m 0,30 h 0,00 h 293 W/m 8,4 km/h (2 Bft) 96,75 %
16.09.2018 13:00 22,8 C 23,4 C 19,4 C 54 % 1019,9 hPa 0,0 l/m 0,77 h 0,00 h 472 W/m 6,6 km/h (2 Bft) 97,31 %
16.09.2018 14:00 23,3 C 23,7 C 20,5 C 52 % 1019,2 hPa 0,0 l/m 1,00 h 0,00 h 571 W/m 7,9 km/h (2 Bft) 95,88 %
16.09.2018 15:00 23,8 C 23,8 C 20,8 C 50 % 1018,6 hPa 0,0 l/m 1,00 h 0,00 h 496 W/m 8,4 km/h (2 Bft) 99,85 %
16.09.2018 16:00 24,1 C 24,4 C 20,8 C 49 % 1017,9 hPa 0,0 l/m 0,97 h 0,00 h 380 W/m 7,2 km/h (2 Bft) 97,13 %
16.09.2018 17:00 23,8 C 23,2 C 19,8 C 52 % 1017,5 hPa 0,0 l/m 0,67 h 0,00 h 212 W/m 4,6 km/h (1 Bft) 96,50 %
16.09.2018 18:00 23,0 C 21,8 C 19,2 C 56 % 1017,2 hPa 0,0 l/m 0,80 h 0,00 h 124 W/m 1,4 km/h (1 Bft) 98,57 %
16.09.2018 19:00 21,0 C 18,2 C 17,0 C 62 % 1017,3 hPa 0,0 l/m 0,00 h 0,00 h 19 W/m 0,0 km/h (0 Bft) 97,63 %
16.09.2018 20:00 18,3 C 16,2 C 15,3 C 70 % 1017,5 hPa 0,0 l/m 0,00 h 0,00 h 0 W/m 0,0 km/h (0 Bft) 96,12 %
16.09.2018 21:00 16,7 C 15,0 C 14,3 C 75 % 1017,6 hPa 0,0 l/m 0,00 h 0,00 h 0 W/m 0,0 km/h (0 Bft) 98,82 %
16.09.2018 22:00 15,5 C 14,1 C 13,7 C 78 % 1017,7 hPa 0,0 l/m 0,00 h 0,00 h 0 W/m 0,2 km/h (0 Bft) 96,95 %
16.09.2018 23:00 14,4 C 13,0 C 12,6 C 80 % 1017,7 hPa 0,0 l/m 0,00 h 0,00 h 0 W/m 0,0 km/h (0 Bft) 99,35 %
Min-Datum _ 14.09.18 14.09.18 14.09.18 16.09.18 12.09.18 - - - - 10.09.18 10.09.18
_ Min-Zeit 07:26 06:58 06:16 16:22 05:34 - - - - 00:02 00:02
Minimum _ 7,2 C 6,1 C 6,7 C 48 % 1017,1 hPa - - - - 0,0 km/h (0 Bft) 12,50 %
Max-Datum _ 11.09.18 12.09.18 11.09.18 13.09.18 15.09.18 13.09.18 12.09.18 13.09.18 12.09.18 12.09.18 10.09.18
_ Max-Zeit 16:52 11:38 16:40 09:18 22:34 02:24 11:08 04:05 13:34 16:42 00:00
Maximum _ 27,1 C 28,9 C 25,0 C 98 % 1023,2 hPa 0,6 l/m 0,07 h 0,08 h 910 W/m 27,0 km/h
NW (4 Bft)
100,00 %
Durchschnitt _ 16,9 C 16,8 C 15,4 C 78 % 1019,5 hPa #1,6 l/m #36:08 h #3:32 h 229 W/m 4,0 km/h (1 Bft) 97,50 %
© 2018 W. Hausmann